sensor_id;sensor_type;location;lat;lon;timestamp;P1;durP1;ratioP1;P2;durP2;ratioP2
79790;SDS011;69278;52.220;5.172;2024-02-15T00:02:22;12.55;;;5.20;;
79790;SDS011;69278;52.220;5.172;2024-02-15T00:04:49;22.58;;;6.50;;
79790;SDS011;69278;52.220;5.172;2024-02-15T00:07:16;18.88;;;6.60;;
79790;SDS011;69278;52.220;5.172;2024-02-15T00:09:42;15.90;;;6.93;;
79790;SDS011;69278;52.220;5.172;2024-02-15T00:12:09;17.10;;;6.07;;
79790;SDS011;69278;52.220;5.172;2024-02-15T00:14:36;20.02;;;6.50;;
79790;SDS011;69278;52.220;5.172;2024-02-15T00:17:04;16.63;;;5.93;;
79790;SDS011;69278;52.220;5.172;2024-02-15T00:19:31;17.25;;;5.82;;
79790;SDS011;69278;52.220;5.172;2024-02-15T00:21:58;12.43;;;4.97;;
79790;SDS011;69278;52.220;5.172;2024-02-15T00:24:25;12.95;;;5.30;;
79790;SDS011;69278;52.220;5.172;2024-02-15T00:26:52;12.70;;;4.95;;
79790;SDS011;69278;52.220;5.172;2024-02-15T00:29:19;12.68;;;5.07;;
79790;SDS011;69278;52.220;5.172;2024-02-15T00:31:46;14.63;;;5.53;;
79790;SDS011;69278;52.220;5.172;2024-02-15T00:34:13;17.33;;;4.82;;
79790;SDS011;69278;52.220;5.172;2024-02-15T00:36:43;12.98;;;4.40;;
79790;SDS011;69278;52.220;5.172;2024-02-15T00:39:12;12.70;;;4.40;;
79790;SDS011;69278;52.220;5.172;2024-02-15T00:41:40;13.55;;;4.63;;
79790;SDS011;69278;52.220;5.172;2024-02-15T00:44:09;14.25;;;4.35;;
79790;SDS011;69278;52.220;5.172;2024-02-15T00:46:37;10.60;;;4.25;;
79790;SDS011;69278;52.220;5.172;2024-02-15T00:49:04;11.02;;;3.90;;
79790;SDS011;69278;52.220;5.172;2024-02-15T00:51:32;9.98;;;4.30;;
79790;SDS011;69278;52.220;5.172;2024-02-15T00:54:02;12.82;;;4.43;;
79790;SDS011;69278;52.220;5.172;2024-02-15T00:56:28;11.88;;;4.20;;
79790;SDS011;69278;52.220;5.172;2024-02-15T00:58:59;12.43;;;4.45;;
79790;SDS011;69278;52.220;5.172;2024-02-15T01:01:27;10.38;;;3.97;;
79790;SDS011;69278;52.220;5.172;2024-02-15T01:03:53;13.95;;;4.00;;
79790;SDS011;69278;52.220;5.172;2024-02-15T01:06:20;7.15;;;3.55;;
79790;SDS011;69278;52.220;5.172;2024-02-15T01:08:46;9.95;;;4.38;;
79790;SDS011;69278;52.220;5.172;2024-02-15T01:11:13;13.57;;;4.13;;
79790;SDS011;69278;52.220;5.172;2024-02-15T01:13:40;11.88;;;4.13;;
79790;SDS011;69278;52.220;5.172;2024-02-15T01:16:07;12.05;;;4.28;;
79790;SDS011;69278;52.220;5.172;2024-02-15T01:18:34;15.65;;;4.68;;
79790;SDS011;69278;52.220;5.172;2024-02-15T01:21:01;9.07;;;4.35;;
79790;SDS011;69278;52.220;5.172;2024-02-15T01:23:28;12.32;;;4.53;;
79790;SDS011;69278;52.220;5.172;2024-02-15T01:25:55;12.50;;;5.57;;
79790;SDS011;69278;52.220;5.172;2024-02-15T01:28:21;13.18;;;4.78;;
79790;SDS011;69278;52.220;5.172;2024-02-15T01:30:48;11.32;;;4.78;;
79790;SDS011;69278;52.220;5.172;2024-02-15T01:33:15;10.65;;;5.00;;
79790;SDS011;69278;52.220;5.172;2024-02-15T01:35:42;13.68;;;5.55;;
79790;SDS011;69278;52.220;5.172;2024-02-15T01:38:08;12.82;;;5.32;;
79790;SDS011;69278;52.220;5.172;2024-02-15T01:40:35;14.82;;;5.35;;
79790;SDS011;69278;52.220;5.172;2024-02-15T01:43:01;13.90;;;5.40;;
79790;SDS011;69278;52.220;5.172;2024-02-15T01:45:28;17.83;;;5.57;;
79790;SDS011;69278;52.220;5.172;2024-02-15T01:50:34;13.95;;;5.25;;
79790;SDS011;69278;52.220;5.172;2024-02-15T01:53:01;14.80;;;5.68;;
79790;SDS011;69278;52.220;5.172;2024-02-15T01:55:30;15.43;;;5.80;;
79790;SDS011;69278;52.220;5.172;2024-02-15T01:57:57;16.25;;;6.15;;
79790;SDS011;69278;52.220;5.172;2024-02-15T02:00:24;13.50;;;6.60;;
79790;SDS011;69278;52.220;5.172;2024-02-15T02:02:51;15.02;;;6.20;;
79790;SDS011;69278;52.220;5.172;2024-02-15T02:05:19;15.38;;;6.22;;
79790;SDS011;69278;52.220;5.172;2024-02-15T02:07:46;17.27;;;6.85;;
79790;SDS011;69278;52.220;5.172;2024-02-15T02:10:13;13.93;;;6.53;;
79790;SDS011;69278;52.220;5.172;2024-02-15T02:12:41;16.85;;;6.70;;
79790;SDS011;69278;52.220;5.172;2024-02-15T02:15:08;15.23;;;6.00;;
79790;SDS011;69278;52.220;5.172;2024-02-15T02:17:37;16.38;;;7.30;;
79790;SDS011;69278;52.220;5.172;2024-02-15T02:20:04;17.50;;;6.95;;
79790;SDS011;69278;52.220;5.172;2024-02-15T02:22:35;15.73;;;7.18;;
79790;SDS011;69278;52.220;5.172;2024-02-15T02:27:32;14.40;;;6.97;;
79790;SDS011;69278;52.220;5.172;2024-02-15T02:29:59;17.08;;;7.30;;
79790;SDS011;69278;52.220;5.172;2024-02-15T02:32:26;18.33;;;7.88;;
79790;SDS011;69278;52.220;5.172;2024-02-15T02:34:53;19.65;;;7.60;;
79790;SDS011;69278;52.220;5.172;2024-02-15T02:37:24;19.55;;;7.38;;
79790;SDS011;69278;52.220;5.172;2024-02-15T02:39:50;16.65;;;7.47;;
79790;SDS011;69278;52.220;5.172;2024-02-15T02:42:17;15.18;;;7.22;;
79790;SDS011;69278;52.220;5.172;2024-02-15T02:44:44;16.55;;;7.25;;
79790;SDS011;69278;52.220;5.172;2024-02-15T02:47:11;17.33;;;7.20;;
79790;SDS011;69278;52.220;5.172;2024-02-15T02:49:38;17.52;;;7.50;;
79790;SDS011;69278;52.220;5.172;2024-02-15T02:52:05;15.65;;;7.85;;
79790;SDS011;69278;52.220;5.172;2024-02-15T02:54:32;16.58;;;7.13;;
79790;SDS011;69278;52.220;5.172;2024-02-15T02:56:59;18.05;;;7.18;;
79790;SDS011;69278;52.220;5.172;2024-02-15T02:59:26;20.20;;;7.60;;
79790;SDS011;69278;52.220;5.172;2024-02-15T03:01:52;16.13;;;6.82;;
79790;SDS011;69278;52.220;5.172;2024-02-15T03:04:22;16.90;;;7.18;;
79790;SDS011;69278;52.220;5.172;2024-02-15T03:06:49;14.82;;;6.82;;
79790;SDS011;69278;52.220;5.172;2024-02-15T03:09:16;17.40;;;7.78;;
79790;SDS011;69278;52.220;5.172;2024-02-15T03:11:42;19.92;;;8.10;;
79790;SDS011;69278;52.220;5.172;2024-02-15T03:14:09;20.77;;;8.20;;
79790;SDS011;69278;52.220;5.172;2024-02-15T03:16:37;15.95;;;7.05;;
79790;SDS011;69278;52.220;5.172;2024-02-15T03:19:04;19.60;;;8.07;;
79790;SDS011;69278;52.220;5.172;2024-02-15T03:21:31;16.02;;;6.97;;
79790;SDS011;69278;52.220;5.172;2024-02-15T03:23:57;20.05;;;7.72;;
79790;SDS011;69278;52.220;5.172;2024-02-15T03:26:30;19.20;;;6.47;;
79790;SDS011;69278;52.220;5.172;2024-02-15T03:29:03;16.75;;;7.32;;
79790;SDS011;69278;52.220;5.172;2024-02-15T03:31:30;16.25;;;6.72;;
79790;SDS011;69278;52.220;5.172;2024-02-15T03:33:58;16.52;;;6.32;;
79790;SDS011;69278;52.220;5.172;2024-02-15T03:36:25;14.73;;;6.72;;
79790;SDS011;69278;52.220;5.172;2024-02-15T03:38:52;15.40;;;6.68;;
79790;SDS011;69278;52.220;5.172;2024-02-15T03:41:20;14.02;;;6.60;;
79790;SDS011;69278;52.220;5.172;2024-02-15T03:43:47;13.27;;;6.57;;
79790;SDS011;69278;52.220;5.172;2024-02-15T03:46:13;15.63;;;6.50;;
79790;SDS011;69278;52.220;5.172;2024-02-15T03:48:43;15.02;;;6.65;;
79790;SDS011;69278;52.220;5.172;2024-02-15T03:51:16;18.00;;;6.45;;
79790;SDS011;69278;52.220;5.172;2024-02-15T03:53:44;14.02;;;6.22;;
79790;SDS011;69278;52.220;5.172;2024-02-15T03:56:11;13.27;;;5.68;;
79790;SDS011;69278;52.220;5.172;2024-02-15T03:58:38;14.10;;;6.07;;
79790;SDS011;69278;52.220;5.172;2024-02-15T04:01:04;16.83;;;5.93;;
79790;SDS011;69278;52.220;5.172;2024-02-15T04:03:33;14.57;;;6.28;;
79790;SDS011;69278;52.220;5.172;2024-02-15T04:06:00;13.60;;;5.80;;
79790;SDS011;69278;52.220;5.172;2024-02-15T04:08:27;12.77;;;5.78;;
79790;SDS011;69278;52.220;5.172;2024-02-15T04:10:56;12.38;;;5.45;;
79790;SDS011;69278;52.220;5.172;2024-02-15T04:13:23;15.23;;;5.60;;
79790;SDS011;69278;52.220;5.172;2024-02-15T04:15:50;15.18;;;5.93;;
79790;SDS011;69278;52.220;5.172;2024-02-15T04:18:19;13.20;;;5.30;;
79790;SDS011;69278;52.220;5.172;2024-02-15T04:20:46;13.70;;;5.60;;
79790;SDS011;69278;52.220;5.172;2024-02-15T04:23:12;11.90;;;5.82;;
79790;SDS011;69278;52.220;5.172;2024-02-15T04:25:39;14.70;;;5.78;;
79790;SDS011;69278;52.220;5.172;2024-02-15T04:28:07;13.65;;;5.57;;
79790;SDS011;69278;52.220;5.172;2024-02-15T04:30:35;16.70;;;5.90;;
79790;SDS011;69278;52.220;5.172;2024-02-15T04:33:04;12.88;;;6.00;;
79790;SDS011;69278;52.220;5.172;2024-02-15T04:35:34;19.33;;;6.10;;
79790;SDS011;69278;52.220;5.172;2024-02-15T04:38:01;15.68;;;5.57;;
79790;SDS011;69278;52.220;5.172;2024-02-15T04:40:29;16.65;;;6.18;;
79790;SDS011;69278;52.220;5.172;2024-02-15T04:42:56;11.90;;;5.70;;
79790;SDS011;69278;52.220;5.172;2024-02-15T04:45:24;14.32;;;5.70;;
79790;SDS011;69278;52.220;5.172;2024-02-15T04:47:52;15.15;;;5.85;;
79790;SDS011;69278;52.220;5.172;2024-02-15T04:50:20;13.13;;;5.80;;
79790;SDS011;69278;52.220;5.172;2024-02-15T04:52:47;17.83;;;5.78;;
79790;SDS011;69278;52.220;5.172;2024-02-15T04:55:16;13.75;;;5.93;;
79790;SDS011;69278;52.220;5.172;2024-02-15T04:57:44;15.38;;;5.82;;
79790;SDS011;69278;52.220;5.172;2024-02-15T05:00:10;12.55;;;6.07;;
79790;SDS011;69278;52.220;5.172;2024-02-15T05:02:39;12.60;;;6.15;;
79790;SDS011;69278;52.220;5.172;2024-02-15T05:05:08;14.70;;;6.10;;
79790;SDS011;69278;52.220;5.172;2024-02-15T05:07:35;14.23;;;6.78;;
79790;SDS011;69278;52.220;5.172;2024-02-15T05:10:06;16.73;;;6.60;;
79790;SDS011;69278;52.220;5.172;2024-02-15T05:12:35;16.33;;;7.10;;
79790;SDS011;69278;52.220;5.172;2024-02-15T05:15:03;20.27;;;7.32;;
79790;SDS011;69278;52.220;5.172;2024-02-15T05:17:40;18.08;;;7.35;;
79790;SDS011;69278;52.220;5.172;2024-02-15T05:20:08;17.25;;;7.35;;
79790;SDS011;69278;52.220;5.172;2024-02-15T05:22:40;16.90;;;6.93;;
79790;SDS011;69278;52.220;5.172;2024-02-15T05:25:19;14.75;;;7.60;;
79790;SDS011;69278;52.220;5.172;2024-02-15T05:27:51;14.85;;;6.82;;
79790;SDS011;69278;52.220;5.172;2024-02-15T05:30:20;15.85;;;7.28;;
79790;SDS011;69278;52.220;5.172;2024-02-15T05:32:47;14.88;;;6.90;;
79790;SDS011;69278;52.220;5.172;2024-02-15T05:35:14;15.00;;;7.03;;
79790;SDS011;69278;52.220;5.172;2024-02-15T05:37:41;15.43;;;7.22;;
79790;SDS011;69278;52.220;5.172;2024-02-15T05:40:07;16.30;;;6.90;;
79790;SDS011;69278;52.220;5.172;2024-02-15T05:42:42;18.88;;;7.45;;
79790;SDS011;69278;52.220;5.172;2024-02-15T05:45:29;18.90;;;7.60;;
79790;SDS011;69278;52.220;5.172;2024-02-15T05:48:00;16.77;;;7.38;;
79790;SDS011;69278;52.220;5.172;2024-02-15T05:50:28;17.92;;;7.45;;
79790;SDS011;69278;52.220;5.172;2024-02-15T05:52:56;17.42;;;7.00;;
79790;SDS011;69278;52.220;5.172;2024-02-15T05:55:24;19.15;;;7.85;;
79790;SDS011;69278;52.220;5.172;2024-02-15T05:57:52;21.08;;;8.25;;
79790;SDS011;69278;52.220;5.172;2024-02-15T06:00:19;18.27;;;8.00;;
79790;SDS011;69278;52.220;5.172;2024-02-15T06:02:59;18.52;;;8.25;;
79790;SDS011;69278;52.220;5.172;2024-02-15T06:05:30;16.48;;;7.70;;
79790;SDS011;69278;52.220;5.172;2024-02-15T06:07:57;19.15;;;8.25;;
79790;SDS011;69278;52.220;5.172;2024-02-15T06:10:24;19.90;;;8.38;;
79790;SDS011;69278;52.220;5.172;2024-02-15T06:12:51;20.15;;;8.48;;
79790;SDS011;69278;52.220;5.172;2024-02-15T06:15:18;20.15;;;9.20;;
79790;SDS011;69278;52.220;5.172;2024-02-15T06:17:45;16.98;;;8.05;;
79790;SDS011;69278;52.220;5.172;2024-02-15T06:20:13;17.85;;;8.48;;
79790;SDS011;69278;52.220;5.172;2024-02-15T06:22:40;18.13;;;8.70;;
79790;SDS011;69278;52.220;5.172;2024-02-15T06:25:07;18.70;;;8.90;;
79790;SDS011;69278;52.220;5.172;2024-02-15T06:27:36;19.40;;;9.02;;
79790;SDS011;69278;52.220;5.172;2024-02-15T06:30:07;19.55;;;8.88;;
79790;SDS011;69278;52.220;5.172;2024-02-15T06:32:53;19.00;;;8.93;;
79790;SDS011;69278;52.220;5.172;2024-02-15T06:35:39;18.27;;;8.27;;
79790;SDS011;69278;52.220;5.172;2024-02-15T06:38:24;21.77;;;9.30;;
79790;SDS011;69278;52.220;5.172;2024-02-15T06:41:10;18.92;;;8.75;;
79790;SDS011;69278;52.220;5.172;2024-02-15T06:43:36;18.10;;;7.72;;
79790;SDS011;69278;52.220;5.172;2024-02-15T06:46:05;19.95;;;9.02;;
79790;SDS011;69278;52.220;5.172;2024-02-15T06:48:32;18.33;;;9.27;;
79790;SDS011;69278;52.220;5.172;2024-02-15T06:50:59;20.45;;;9.30;;
79790;SDS011;69278;52.220;5.172;2024-02-15T06:53:26;20.88;;;10.07;;
79790;SDS011;69278;52.220;5.172;2024-02-15T06:55:52;23.27;;;10.05;;
79790;SDS011;69278;52.220;5.172;2024-02-15T06:58:19;20.77;;;9.30;;
79790;SDS011;69278;52.220;5.172;2024-02-15T07:00:47;18.77;;;8.60;;
79790;SDS011;69278;52.220;5.172;2024-02-15T07:03:14;10.65;;;4.28;;
79790;SDS011;69278;52.220;5.172;2024-02-15T07:05:43;6.20;;;3.45;;
79790;SDS011;69278;52.220;5.172;2024-02-15T07:08:10;8.23;;;4.50;;
79790;SDS011;69278;52.220;5.172;2024-02-15T07:10:37;6.22;;;3.78;;
79790;SDS011;69278;52.220;5.172;2024-02-15T07:13:05;7.85;;;4.28;;
79790;SDS011;69278;52.220;5.172;2024-02-15T07:15:36;6.20;;;3.15;;
79790;SDS011;69278;52.220;5.172;2024-02-15T07:18:05;6.80;;;3.60;;
79790;SDS011;69278;52.220;5.172;2024-02-15T07:20:33;6.75;;;3.50;;
79790;SDS011;69278;52.220;5.172;2024-02-15T07:23:00;10.00;;;5.50;;
79790;SDS011;69278;52.220;5.172;2024-02-15T07:25:27;7.18;;;4.00;;
79790;SDS011;69278;52.220;5.172;2024-02-15T07:27:54;6.13;;;3.45;;
79790;SDS011;69278;52.220;5.172;2024-02-15T07:30:20;7.93;;;3.72;;
79790;SDS011;69278;52.220;5.172;2024-02-15T07:32:51;5.85;;;3.60;;
79790;SDS011;69278;52.220;5.172;2024-02-15T07:35:18;8.35;;;4.10;;
79790;SDS011;69278;52.220;5.172;2024-02-15T07:37:54;7.25;;;3.97;;
79790;SDS011;69278;52.220;5.172;2024-02-15T07:40:26;6.93;;;4.00;;
79790;SDS011;69278;52.220;5.172;2024-02-15T07:42:59;7.88;;;3.70;;
79790;SDS011;69278;52.220;5.172;2024-02-15T07:45:25;6.88;;;3.78;;
79790;SDS011;69278;52.220;5.172;2024-02-15T07:47:52;6.70;;;3.60;;
79790;SDS011;69278;52.220;5.172;2024-02-15T07:50:19;6.85;;;3.72;;
79790;SDS011;69278;52.220;5.172;2024-02-15T07:52:49;6.65;;;3.30;;
79790;SDS011;69278;52.220;5.172;2024-02-15T07:55:16;7.20;;;3.47;;
79790;SDS011;69278;52.220;5.172;2024-02-15T07:57:42;5.68;;;3.50;;
79790;SDS011;69278;52.220;5.172;2024-02-15T08:00:09;5.20;;;3.20;;
79790;SDS011;69278;52.220;5.172;2024-02-15T08:02:37;8.52;;;3.55;;
79790;SDS011;69278;52.220;5.172;2024-02-15T08:05:07;5.25;;;3.20;;
79790;SDS011;69278;52.220;5.172;2024-02-15T08:07:43;5.40;;;2.88;;
79790;SDS011;69278;52.220;5.172;2024-02-15T08:10:12;7.45;;;2.80;;
79790;SDS011;69278;52.220;5.172;2024-02-15T08:12:42;5.30;;;3.20;;
79790;SDS011;69278;52.220;5.172;2024-02-15T08:15:10;6.43;;;3.67;;
79790;SDS011;69278;52.220;5.172;2024-02-15T08:17:41;5.78;;;3.80;;
79790;SDS011;69278;52.220;5.172;2024-02-15T08:20:12;7.75;;;3.63;;
79790;SDS011;69278;52.220;5.172;2024-02-15T08:22:40;6.45;;;3.65;;
79790;SDS011;69278;52.220;5.172;2024-02-15T08:25:09;5.78;;;3.50;;
79790;SDS011;69278;52.220;5.172;2024-02-15T08:27:37;6.50;;;3.67;;
79790;SDS011;69278;52.220;5.172;2024-02-15T08:30:12;6.70;;;3.28;;
79790;SDS011;69278;52.220;5.172;2024-02-15T08:32:41;26.20;;;3.85;;
79790;SDS011;69278;52.220;5.172;2024-02-15T08:35:09;6.53;;;3.45;;
79790;SDS011;69278;52.220;5.172;2024-02-15T08:37:37;5.65;;;3.45;;
79790;SDS011;69278;52.220;5.172;2024-02-15T08:40:05;5.40;;;3.40;;
79790;SDS011;69278;52.220;5.172;2024-02-15T08:42:43;7.70;;;3.50;;
79790;SDS011;69278;52.220;5.172;2024-02-15T08:45:10;5.68;;;3.60;;
79790;SDS011;69278;52.220;5.172;2024-02-15T08:47:37;6.95;;;3.50;;
79790;SDS011;69278;52.220;5.172;2024-02-15T08:50:05;6.60;;;3.67;;
79790;SDS011;69278;52.220;5.172;2024-02-15T08:52:37;6.20;;;3.42;;
79790;SDS011;69278;52.220;5.172;2024-02-15T08:55:05;7.10;;;3.63;;
79790;SDS011;69278;52.220;5.172;2024-02-15T08:57:36;6.45;;;3.55;;
79790;SDS011;69278;52.220;5.172;2024-02-15T09:00:06;7.13;;;3.70;;
79790;SDS011;69278;52.220;5.172;2024-02-15T09:02:40;6.20;;;3.70;;
79790;SDS011;69278;52.220;5.172;2024-02-15T09:05:07;7.38;;;4.18;;
79790;SDS011;69278;52.220;5.172;2024-02-15T09:07:34;9.23;;;4.28;;
79790;SDS011;69278;52.220;5.172;2024-02-15T09:10:03;6.38;;;3.92;;
79790;SDS011;69278;52.220;5.172;2024-02-15T09:12:30;7.93;;;4.18;;
79790;SDS011;69278;52.220;5.172;2024-02-15T09:14:57;9.65;;;4.25;;
79790;SDS011;69278;52.220;5.172;2024-02-15T09:17:24;6.82;;;4.10;;
79790;SDS011;69278;52.220;5.172;2024-02-15T09:19:52;7.60;;;4.03;;
79790;SDS011;69278;52.220;5.172;2024-02-15T09:22:21;8.48;;;4.07;;
79790;SDS011;69278;52.220;5.172;2024-02-15T09:24:47;8.07;;;4.15;;
79790;SDS011;69278;52.220;5.172;2024-02-15T09:27:14;8.90;;;4.75;;
79790;SDS011;69278;52.220;5.172;2024-02-15T09:29:40;9.07;;;4.50;;
79790;SDS011;69278;52.220;5.172;2024-02-15T09:32:08;9.35;;;4.28;;
79790;SDS011;69278;52.220;5.172;2024-02-15T09:34:35;9.45;;;4.22;;
79790;SDS011;69278;52.220;5.172;2024-02-15T09:37:01;9.20;;;4.40;;
79790;SDS011;69278;52.220;5.172;2024-02-15T09:39:28;7.57;;;4.43;;
79790;SDS011;69278;52.220;5.172;2024-02-15T09:41:54;10.68;;;4.65;;
79790;SDS011;69278;52.220;5.172;2024-02-15T09:44:25;10.02;;;4.80;;
79790;SDS011;69278;52.220;5.172;2024-02-15T09:47:02;8.73;;;4.43;;
79790;SDS011;69278;52.220;5.172;2024-02-15T09:49:30;9.15;;;4.68;;
79790;SDS011;69278;52.220;5.172;2024-02-15T09:52:02;5.70;;;2.97;;
79790;SDS011;69278;52.220;5.172;2024-02-15T09:54:30;8.25;;;4.50;;
79790;SDS011;69278;52.220;5.172;2024-02-15T09:56:57;9.40;;;4.65;;
79790;SDS011;69278;52.220;5.172;2024-02-15T09:59:27;10.02;;;4.50;;
79790;SDS011;69278;52.220;5.172;2024-02-15T10:01:54;12.25;;;6.28;;
79790;SDS011;69278;52.220;5.172;2024-02-15T10:04:24;10.32;;;4.63;;
79790;SDS011;69278;52.220;5.172;2024-02-15T10:06:51;9.55;;;3.85;;
79790;SDS011;69278;52.220;5.172;2024-02-15T10:09:25;11.60;;;4.60;;
79790;SDS011;69278;52.220;5.172;2024-02-15T10:11:53;8.15;;;4.32;;
79790;SDS011;69278;52.220;5.172;2024-02-15T10:14:26;13.48;;;4.90;;
79790;SDS011;69278;52.220;5.172;2024-02-15T10:16:55;12.52;;;4.95;;
79790;SDS011;69278;52.220;5.172;2024-02-15T10:19:22;9.35;;;4.85;;
79790;SDS011;69278;52.220;5.172;2024-02-15T10:21:52;11.90;;;5.50;;
79790;SDS011;69278;52.220;5.172;2024-02-15T10:24:22;10.80;;;5.60;;
79790;SDS011;69278;52.220;5.172;2024-02-15T10:26:50;12.43;;;5.15;;
79790;SDS011;69278;52.220;5.172;2024-02-15T10:29:19;11.90;;;5.72;;
79790;SDS011;69278;52.220;5.172;2024-02-15T10:31:53;15.82;;;6.40;;
79790;SDS011;69278;52.220;5.172;2024-02-15T10:34:20;17.45;;;6.10;;
79790;SDS011;69278;52.220;5.172;2024-02-15T10:36:48;12.80;;;5.35;;
79790;SDS011;69278;52.220;5.172;2024-02-15T10:39:18;12.45;;;6.20;;
79790;SDS011;69278;52.220;5.172;2024-02-15T10:41:47;12.13;;;5.43;;
79790;SDS011;69278;52.220;5.172;2024-02-15T10:44:24;16.75;;;5.50;;
79790;SDS011;69278;52.220;5.172;2024-02-15T10:46:52;11.93;;;4.82;;
79790;SDS011;69278;52.220;5.172;2024-02-15T10:49:20;12.27;;;5.18;;
79790;SDS011;69278;52.220;5.172;2024-02-15T10:51:50;12.95;;;4.82;;
79790;SDS011;69278;52.220;5.172;2024-02-15T10:54:33;9.73;;;5.07;;
79790;SDS011;69278;52.220;5.172;2024-02-15T10:57:05;15.57;;;5.53;;
79790;SDS011;69278;52.220;5.172;2024-02-15T10:59:34;12.05;;;5.32;;
79790;SDS011;69278;52.220;5.172;2024-02-15T11:05:00;17.20;;;5.25;;
79790;SDS011;69278;52.220;5.172;2024-02-15T11:07:31;11.40;;;5.20;;
79790;SDS011;69278;52.220;5.172;2024-02-15T11:09:58;13.43;;;5.65;;
79790;SDS011;69278;52.220;5.172;2024-02-15T11:12:26;13.20;;;5.80;;
79790;SDS011;69278;52.220;5.172;2024-02-15T11:14:53;13.45;;;5.28;;
79790;SDS011;69278;52.220;5.172;2024-02-15T11:20:06;13.07;;;5.50;;
79790;SDS011;69278;52.220;5.172;2024-02-15T11:22:36;14.05;;;5.88;;
79790;SDS011;69278;52.220;5.172;2024-02-15T11:25:03;14.10;;;5.85;;
79790;SDS011;69278;52.220;5.172;2024-02-15T11:27:35;12.75;;;6.22;;
79790;SDS011;69278;52.220;5.172;2024-02-15T11:30:08;13.38;;;6.18;;
79790;SDS011;69278;52.220;5.172;2024-02-15T11:32:47;15.03;;;5.67;;
79790;SDS011;69278;52.220;5.172;2024-02-15T11:35:16;11.48;;;4.47;;
79790;SDS011;69278;52.220;5.172;2024-02-15T11:40:18;7.95;;;3.70;;
79790;SDS011;69278;52.220;5.172;2024-02-15T11:42:55;9.50;;;4.05;;
79790;SDS011;69278;52.220;5.172;2024-02-15T11:48:08;9.88;;;4.03;;
79790;SDS011;69278;52.220;5.172;2024-02-15T11:50:38;10.02;;;4.28;;
79790;SDS011;69278;52.220;5.172;2024-02-15T11:53:06;10.30;;;4.53;;
79790;SDS011;69278;52.220;5.172;2024-02-15T11:55:38;12.43;;;4.60;;
79790;SDS011;69278;52.220;5.172;2024-02-15T11:58:07;12.33;;;4.83;;
79790;SDS011;69278;52.220;5.172;2024-02-15T12:00:36;10.75;;;4.65;;
79790;SDS011;69278;52.220;5.172;2024-02-15T12:03:22;10.73;;;4.25;;
79790;SDS011;69278;52.220;5.172;2024-02-15T12:06:25;9.68;;;4.63;;
79790;SDS011;69278;52.220;5.172;2024-02-15T12:09:12;8.85;;;3.80;;
79790;SDS011;69278;52.220;5.172;2024-02-15T12:12:05;9.00;;;4.30;;
79790;SDS011;69278;52.220;5.172;2024-02-15T12:15:01;7.40;;;3.90;;
79790;SDS011;69278;52.220;5.172;2024-02-15T12:17:48;9.05;;;4.22;;
79790;SDS011;69278;52.220;5.172;2024-02-15T12:20:33;8.55;;;4.07;;
79790;SDS011;69278;52.220;5.172;2024-02-15T12:23:01;8.02;;;4.25;;
79790;SDS011;69278;52.220;5.172;2024-02-15T12:25:36;9.13;;;4.83;;
79790;SDS011;69278;52.220;5.172;2024-02-15T12:28:04;9.30;;;4.43;;
79790;SDS011;69278;52.220;5.172;2024-02-15T12:30:42;10.45;;;5.47;;
79790;SDS011;69278;52.220;5.172;2024-02-15T12:33:09;10.65;;;5.82;;
79790;SDS011;69278;52.220;5.172;2024-02-15T12:35:37;13.15;;;6.18;;
79790;SDS011;69278;52.220;5.172;2024-02-15T12:38:04;12.73;;;6.10;;
79790;SDS011;69278;52.220;5.172;2024-02-15T12:40:36;10.35;;;6.40;;
79790;SDS011;69278;52.220;5.172;2024-02-15T12:43:05;12.63;;;6.10;;
79790;SDS011;69278;52.220;5.172;2024-02-15T12:45:37;11.73;;;5.90;;
79790;SDS011;69278;52.220;5.172;2024-02-15T12:48:05;13.07;;;5.80;;
79790;SDS011;69278;52.220;5.172;2024-02-15T12:50:33;12.57;;;6.13;;
79790;SDS011;69278;52.220;5.172;2024-02-15T12:55:55;9.88;;;5.47;;
79790;SDS011;69278;52.220;5.172;2024-02-15T12:58:22;11.32;;;5.32;;
79790;SDS011;69278;52.220;5.172;2024-02-15T13:01:03;11.43;;;5.75;;
79790;SDS011;69278;52.220;5.172;2024-02-15T13:03:30;10.55;;;5.68;;
79790;SDS011;69278;52.220;5.172;2024-02-15T13:08:29;9.98;;;5.20;;
79790;SDS011;69278;52.220;5.172;2024-02-15T13:10:57;9.00;;;5.10;;
79790;SDS011;69278;52.220;5.172;2024-02-15T13:13:24;10.75;;;5.10;;
79790;SDS011;69278;52.220;5.172;2024-02-15T13:15:51;7.80;;;4.20;;
79790;SDS011;69278;52.220;5.172;2024-02-15T13:18:19;9.98;;;5.13;;
79790;SDS011;69278;52.220;5.172;2024-02-15T13:20:46;7.95;;;4.60;;
79790;SDS011;69278;52.220;5.172;2024-02-15T13:23:16;9.27;;;4.78;;
79790;SDS011;69278;52.220;5.172;2024-02-15T13:25:49;10.63;;;4.50;;
79790;SDS011;69278;52.220;5.172;2024-02-15T13:28:16;9.87;;;3.93;;
79790;SDS011;69278;52.220;5.172;2024-02-15T13:30:42;7.10;;;4.10;;
79790;SDS011;69278;52.220;5.172;2024-02-15T13:33:11;7.10;;;3.60;;
79790;SDS011;69278;52.220;5.172;2024-02-15T13:35:39;8.02;;;3.10;;
79790;SDS011;69278;52.220;5.172;2024-02-15T13:38:06;8.38;;;3.40;;
79790;SDS011;69278;52.220;5.172;2024-02-15T13:40:35;6.50;;;3.10;;
79790;SDS011;69278;52.220;5.172;2024-02-15T13:43:01;7.28;;;3.30;;
79790;SDS011;69278;52.220;5.172;2024-02-15T13:45:31;7.78;;;2.70;;
79790;SDS011;69278;52.220;5.172;2024-02-15T13:48:05;8.95;;;3.30;;
79790;SDS011;69278;52.220;5.172;2024-02-15T13:50:37;9.13;;;2.80;;
79790;SDS011;69278;52.220;5.172;2024-02-15T13:53:05;7.03;;;2.67;;
79790;SDS011;69278;52.220;5.172;2024-02-15T13:55:33;6.18;;;2.60;;
79790;SDS011;69278;52.220;5.172;2024-02-15T13:58:00;6.95;;;2.60;;
79790;SDS011;69278;52.220;5.172;2024-02-15T14:00:27;6.07;;;2.67;;
79790;SDS011;69278;52.220;5.172;2024-02-15T14:03:01;5.57;;;2.47;;
79790;SDS011;69278;52.220;5.172;2024-02-15T14:05:29;6.97;;;2.53;;
79790;SDS011;69278;52.220;5.172;2024-02-15T14:07:57;6.75;;;2.58;;
79790;SDS011;69278;52.220;5.172;2024-02-15T14:10:25;6.93;;;2.53;;
79790;SDS011;69278;52.220;5.172;2024-02-15T14:12:54;6.80;;;2.60;;
79790;SDS011;69278;52.220;5.172;2024-02-15T14:15:32;7.68;;;2.80;;
79790;SDS011;69278;52.220;5.172;2024-02-15T14:18:10;6.53;;;2.40;;
79790;SDS011;69278;52.220;5.172;2024-02-15T14:20:40;5.28;;;2.40;;
79790;SDS011;69278;52.220;5.172;2024-02-15T14:23:09;5.05;;;2.13;;
79790;SDS011;69278;52.220;5.172;2024-02-15T14:25:40;4.82;;;2.15;;
79790;SDS011;69278;52.220;5.172;2024-02-15T14:28:07;6.07;;;2.40;;
79790;SDS011;69278;52.220;5.172;2024-02-15T14:30:34;5.83;;;2.50;;
79790;SDS011;69278;52.220;5.172;2024-02-15T14:33:20;7.53;;;2.25;;
79790;SDS011;69278;52.220;5.172;2024-02-15T14:35:49;5.93;;;2.40;;
79790;SDS011;69278;52.220;5.172;2024-02-15T14:38:19;10.73;;;2.47;;
79790;SDS011;69278;52.220;5.172;2024-02-15T14:40:49;6.53;;;2.22;;
79790;SDS011;69278;52.220;5.172;2024-02-15T14:43:20;5.53;;;2.10;;
79790;SDS011;69278;52.220;5.172;2024-02-15T14:45:48;4.20;;;1.98;;
79790;SDS011;69278;52.220;5.172;2024-02-15T14:48:15;6.53;;;2.08;;
79790;SDS011;69278;52.220;5.172;2024-02-15T14:50:44;4.93;;;2.22;;
79790;SDS011;69278;52.220;5.172;2024-02-15T14:53:11;4.97;;;2.35;;
79790;SDS011;69278;52.220;5.172;2024-02-15T14:55:39;6.27;;;1.90;;
79790;SDS011;69278;52.220;5.172;2024-02-15T14:58:06;6.03;;;2.22;;
79790;SDS011;69278;52.220;5.172;2024-02-15T15:00:40;4.15;;;1.95;;
79790;SDS011;69278;52.220;5.172;2024-02-15T15:03:11;5.57;;;2.15;;
79790;SDS011;69278;52.220;5.172;2024-02-15T15:05:40;3.97;;;1.85;;
79790;SDS011;69278;52.220;5.172;2024-02-15T15:08:26;6.03;;;1.97;;
79790;SDS011;69278;52.220;5.172;2024-02-15T15:11:11;5.22;;;2.15;;
79790;SDS011;69278;52.220;5.172;2024-02-15T15:13:56;5.85;;;2.10;;